createdAt,value
2019-03-31T00:01:48.922Z,50.27
2019-03-31T00:04:17.149Z,56.67
2019-03-31T00:06:45.377Z,58.00
2019-03-31T00:09:13.616Z,50.40
2019-03-31T00:11:41.959Z,56.83
2019-03-31T00:14:10.821Z,59.00
2019-03-31T00:16:38.981Z,58.17
2019-03-31T00:19:07.966Z,62.63
2019-03-31T00:21:36.101Z,66.80
2019-03-31T00:24:04.311Z,68.47
2019-03-31T00:26:32.473Z,61.80
2019-03-31T00:29:00.666Z,73.63
2019-03-31T00:31:29.571Z,70.40
2019-03-31T00:33:57.684Z,73.00
2019-03-31T00:36:25.839Z,70.00
2019-03-31T00:38:53.979Z,73.52
2019-03-31T00:41:22.114Z,68.73
2019-03-31T00:43:50.278Z,69.75
2019-03-31T00:46:18.409Z,79.83
2019-03-31T00:48:47.407Z,78.93
2019-03-31T00:51:15.526Z,80.43
2019-03-31T00:53:43.741Z,85.77
2019-03-31T00:56:11.934Z,83.67
2019-03-31T00:58:40.086Z,80.13
2019-03-31T01:01:10.830Z,80.47
2019-03-31T01:03:58.329Z,84.83
2019-03-31T01:06:26.670Z,92.93
2019-03-31T01:08:58.482Z,79.43
2019-03-31T01:11:27.292Z,80.50
2019-03-31T01:13:55.489Z,77.53
2019-03-31T01:16:23.687Z,91.47
2019-03-31T01:18:51.818Z,94.03
2019-03-31T01:21:20.007Z,89.87
2019-03-31T01:23:48.133Z,84.13
2019-03-31T01:26:18.112Z,90.10
2019-03-31T01:28:46.485Z,86.17
2019-03-31T01:31:14.610Z,82.07
2019-03-31T01:33:42.994Z,93.00
2019-03-31T01:36:11.666Z,86.72
2019-03-31T01:38:39.892Z,84.80
2019-03-31T01:41:08.591Z,91.28
2019-03-31T01:43:36.794Z,87.50
2019-03-31T01:46:06.567Z,84.67
2019-03-31T01:48:34.696Z,89.63
2019-03-31T01:51:02.817Z,88.67
2019-03-31T01:53:30.946Z,93.78
2019-03-31T01:55:59.170Z,95.10
2019-03-31T01:58:27.312Z,93.87
2019-03-31T02:00:57.162Z,94.87
2019-03-31T02:03:25.282Z,98.27
2019-03-31T02:05:53.407Z,94.53
2019-03-31T02:08:21.542Z,81.67
2019-03-31T02:10:49.693Z,89.60
2019-03-31T02:13:17.861Z,91.73
2019-03-31T02:15:46.785Z,98.60
2019-03-31T02:18:14.980Z,95.83
2019-03-31T02:20:43.103Z,94.10
2019-03-31T02:23:11.249Z,98.87
2019-03-31T02:25:39.401Z,88.50
2019-03-31T02:28:07.550Z,92.40
2019-03-31T02:30:35.746Z,98.80
2019-03-31T02:33:04.020Z,87.03
2019-03-31T02:35:32.160Z,109.70
2019-03-31T02:38:00.351Z,96.07
2019-03-31T02:40:28.573Z,89.83
2019-03-31T02:42:56.969Z,99.00
2019-03-31T02:45:25.916Z,105.13
2019-03-31T02:47:54.110Z,95.43
2019-03-31T02:50:29.482Z,100.47
2019-03-31T02:52:57.608Z,98.33
2019-03-31T02:55:25.864Z,95.40
2019-03-31T02:57:54.066Z,94.32
2019-03-31T03:00:22.289Z,101.40
2019-03-31T03:02:51.103Z,99.77
2019-03-31T03:05:20.505Z,99.30
2019-03-31T03:07:49.281Z,100.17
2019-03-31T03:10:18.651Z,98.00
2019-03-31T03:12:48.150Z,99.53
2019-03-31T03:15:20.923Z,96.27
2019-03-31T03:17:49.172Z,105.33
2019-03-31T03:20:17.323Z,96.73
2019-03-31T03:22:45.444Z,107.07
2019-03-31T03:25:13.638Z,101.73
2019-03-31T03:27:41.770Z,106.10
2019-03-31T03:30:09.964Z,103.10
2019-03-31T03:33:10.881Z,108.70
2019-03-31T03:35:10.715Z,96.78
2019-03-31T03:37:38.849Z,100.00
2019-03-31T03:40:07.052Z,109.30
2019-03-31T03:42:35.178Z,106.93
2019-03-31T03:45:04.189Z,104.10
2019-03-31T03:47:32.457Z,98.70
2019-03-31T03:50:00.698Z,107.70
2019-03-31T03:52:28.890Z,102.77
2019-03-31T03:54:57.029Z,110.70
2019-03-31T03:57:25.248Z,102.20
2019-03-31T03:59:53.386Z,108.90
2019-03-31T04:02:21.507Z,109.33
2019-03-31T04:04:49.787Z,107.63
2019-03-31T04:07:18.042Z,104.58
2019-03-31T04:09:46.920Z,105.97
2019-03-31T04:12:15.044Z,106.03
2019-03-31T04:14:43.183Z,118.00
2019-03-31T04:17:17.170Z,114.43
2019-03-31T04:19:45.297Z,118.37
2019-03-31T04:22:13.438Z,112.47
2019-03-31T04:24:41.635Z,105.50
2019-03-31T04:27:10.499Z,107.37
2019-03-31T04:29:38.744Z,112.57
2019-03-31T04:32:06.871Z,122.23
2019-03-31T04:34:35.002Z,129.63
2019-03-31T04:37:03.168Z,114.87
2019-03-31T04:39:31.402Z,107.95
2019-03-31T04:41:59.562Z,118.07
2019-03-31T04:44:27.764Z,115.60
2019-03-31T04:46:55.974Z,125.53
2019-03-31T04:49:24.112Z,118.40
2019-03-31T04:51:52.378Z,121.73
2019-03-31T04:54:20.498Z,118.47
2019-03-31T04:56:48.695Z,113.53
2019-03-31T04:59:16.818Z,117.17
2019-03-31T05:01:44.970Z,116.30
2019-03-31T05:04:13.089Z,110.25
2019-03-31T05:06:41.227Z,119.63
2019-03-31T05:09:09.347Z,122.77
2019-03-31T05:11:37.501Z,110.63
2019-03-31T05:14:08.187Z,100.00
2019-03-31T05:16:36.346Z,105.33
2019-03-31T05:19:04.543Z,104.23
2019-03-31T05:21:32.701Z,92.55
2019-03-31T05:24:00.819Z,90.43
2019-03-31T05:26:28.948Z,93.97
2019-03-31T05:28:57.077Z,81.33
2019-03-31T05:31:25.984Z,110.43
2019-03-31T05:33:54.196Z,78.73
2019-03-31T05:36:22.435Z,82.10
2019-03-31T05:38:50.587Z,81.37
2019-03-31T05:41:18.810Z,68.77
2019-03-31T05:43:46.925Z,76.13
2019-03-31T05:46:15.061Z,72.67
2019-03-31T05:48:43.226Z,68.73
2019-03-31T05:51:11.360Z,66.05
2019-03-31T05:53:39.603Z,69.03
2019-03-31T05:56:07.731Z,73.47
2019-03-31T05:58:35.859Z,70.93
2019-03-31T06:01:03.970Z,67.87
2019-03-31T06:03:32.098Z,60.93
2019-03-31T06:06:00.215Z,61.73
2019-03-31T06:08:28.352Z,73.97
2019-03-31T06:10:56.526Z,67.73
2019-03-31T06:13:25.491Z,62.73
2019-03-31T06:15:53.610Z,57.17
2019-03-31T06:18:21.771Z,54.23
2019-03-31T06:20:49.880Z,55.63
2019-03-31T06:23:18.034Z,62.03
2019-03-31T06:25:46.231Z,57.35
2019-03-31T06:28:14.376Z,63.83
2019-03-31T06:30:43.225Z,53.17
2019-03-31T06:33:11.338Z,65.63
2019-03-31T06:35:39.515Z,73.53
2019-03-31T06:38:07.664Z,78.05
2019-03-31T06:40:35.828Z,77.07
2019-03-31T06:43:04.763Z,74.40
2019-03-31T06:45:32.922Z,69.67
2019-03-31T06:48:01.024Z,74.63
2019-03-31T06:50:29.243Z,77.15
2019-03-31T06:52:57.370Z,71.13
2019-03-31T06:55:25.495Z,57.88
2019-03-31T06:57:53.650Z,68.37
2019-03-31T07:00:22.600Z,64.43
2019-03-31T07:02:50.830Z,60.88
2019-03-31T07:05:18.965Z,67.60
2019-03-31T07:07:47.079Z,67.10
2019-03-31T07:10:15.277Z,72.30
2019-03-31T07:12:43.552Z,62.43
2019-03-31T07:15:11.990Z,55.47
2019-03-31T07:17:40.180Z,54.13
2019-03-31T07:20:09.019Z,58.83
2019-03-31T07:22:37.546Z,51.85
2019-03-31T07:25:09.098Z,52.08
2019-03-31T07:27:37.725Z,57.20
2019-03-31T07:30:10.126Z,55.07
2019-03-31T07:32:38.353Z,57.88
2019-03-31T07:35:18.197Z,54.30
2019-03-31T07:37:47.276Z,53.17
2019-03-31T07:40:11.155Z,58.87
2019-03-31T07:42:39.858Z,59.30
2019-03-31T07:45:08.243Z,56.53
2019-03-31T07:47:36.689Z,57.60
2019-03-31T07:50:08.523Z,63.20
2019-03-31T07:52:36.794Z,57.30
2019-03-31T07:55:05.665Z,57.67
2019-03-31T07:57:34.173Z,58.10
2019-03-31T08:00:02.457Z,62.13
2019-03-31T08:02:30.660Z,64.70
2019-03-31T08:04:59.614Z,54.33
2019-03-31T08:07:27.771Z,63.97
2019-03-31T08:09:55.948Z,53.17
2019-03-31T08:12:24.077Z,57.60
2019-03-31T08:14:52.203Z,54.35
2019-03-31T08:17:20.398Z,53.73
2019-03-31T08:19:48.517Z,63.03
2019-03-31T08:22:16.976Z,51.13
2019-03-31T08:24:45.177Z,60.10
2019-03-31T08:27:13.916Z,52.07
2019-03-31T08:29:42.331Z,51.77
2019-03-31T08:32:10.718Z,52.33
2019-03-31T08:34:38.935Z,58.23
2019-03-31T08:37:07.238Z,45.48
2019-03-31T08:39:35.410Z,44.97
2019-03-31T08:42:03.678Z,50.67
2019-03-31T08:44:31.923Z,43.83
2019-03-31T08:47:19.385Z,44.30
2019-03-31T08:49:47.560Z,53.60
2019-03-31T08:52:15.731Z,45.60
2019-03-31T08:54:43.879Z,41.07
2019-03-31T08:57:12.481Z,47.30
2019-03-31T08:59:40.776Z,41.73
2019-03-31T09:02:25.591Z,40.83
2019-03-31T09:05:00.978Z,45.20
2019-03-31T09:07:29.848Z,37.40
2019-03-31T09:09:58.041Z,39.33
2019-03-31T09:12:26.306Z,40.67
2019-03-31T09:14:54.504Z,37.58
2019-03-31T09:17:22.728Z,34.67
2019-03-31T09:19:50.867Z,44.88
2019-03-31T09:22:19.018Z,34.30
2019-03-31T09:24:47.141Z,38.60
2019-03-31T09:27:15.280Z,35.70
2019-03-31T09:29:43.705Z,36.97
2019-03-31T09:32:11.932Z,36.73
2019-03-31T09:34:40.134Z,33.73
2019-03-31T09:37:08.331Z,31.27
2019-03-31T09:39:36.479Z,26.00
2019-03-31T09:42:04.739Z,33.80
2019-03-31T09:44:32.942Z,27.87
2019-03-31T09:47:01.218Z,30.07
2019-03-31T09:49:29.512Z,30.90
2019-03-31T09:51:57.678Z,33.13
2019-03-31T09:54:25.796Z,35.40
2019-03-31T09:56:53.934Z,34.33
2019-03-31T09:59:22.124Z,34.93
2019-03-31T10:01:50.319Z,32.43
2019-03-31T10:04:18.434Z,28.03
2019-03-31T10:06:46.641Z,34.07
2019-03-31T10:09:14.863Z,27.37
2019-03-31T10:11:43.819Z,22.07
2019-03-31T10:14:12.007Z,29.97
2019-03-31T10:16:40.153Z,41.60
2019-03-31T10:19:08.334Z,30.55
2019-03-31T10:21:36.550Z,27.77
2019-03-31T10:24:04.771Z,27.07
2019-03-31T10:26:32.912Z,30.45
2019-03-31T10:29:01.025Z,32.17
2019-03-31T10:31:29.151Z,32.87
2019-03-31T10:33:57.292Z,33.53
2019-03-31T10:36:25.469Z,36.93
2019-03-31T10:38:53.671Z,29.73
2019-03-31T10:41:22.561Z,31.43
2019-03-31T10:43:50.679Z,29.72
2019-03-31T10:46:18.814Z,32.63
2019-03-31T10:48:47.767Z,24.53
2019-03-31T10:51:15.934Z,21.50
2019-03-31T10:53:44.120Z,24.63
2019-03-31T10:56:12.302Z,26.50
2019-03-31T10:58:40.437Z,83.10
2019-03-31T11:01:08.620Z,24.00
2019-03-31T11:03:36.812Z,31.27
2019-03-31T11:06:05.033Z,28.63
2019-03-31T11:08:33.250Z,30.93
2019-03-31T11:11:01.389Z,31.73
2019-03-31T11:13:29.549Z,44.93
2019-03-31T11:15:57.732Z,23.83
2019-03-31T11:18:25.907Z,22.10
2019-03-31T11:20:54.026Z,21.67
2019-03-31T11:23:24.096Z,21.33
2019-03-31T11:25:52.334Z,25.10
2019-03-31T11:28:20.516Z,23.97
2019-03-31T11:30:48.736Z,21.87
2019-03-31T11:33:16.851Z,22.67
2019-03-31T11:35:44.992Z,23.65
2019-03-31T11:38:13.253Z,22.07
2019-03-31T11:40:42.132Z,21.50
2019-03-31T11:43:10.256Z,29.60
2019-03-31T11:45:38.442Z,22.80
2019-03-31T11:48:06.638Z,25.60
2019-03-31T11:50:34.771Z,17.27
2019-03-31T11:53:02.916Z,20.50
2019-03-31T11:55:31.067Z,16.32
2019-03-31T11:57:59.291Z,19.30
2019-03-31T12:00:29.226Z,17.10
2019-03-31T12:02:57.421Z,18.62
2019-03-31T12:05:25.626Z,20.75
2019-03-31T12:07:53.836Z,22.77
2019-03-31T12:10:22.232Z,19.37
2019-03-31T12:12:50.410Z,16.62
2019-03-31T12:15:18.536Z,18.67
2019-03-31T12:17:46.670Z,13.50
2019-03-31T12:20:15.254Z,15.25
2019-03-31T12:22:43.391Z,15.70
2019-03-31T12:25:11.588Z,15.70
2019-03-31T12:27:39.728Z,14.45
2019-03-31T12:30:08.136Z,14.20
2019-03-31T12:32:38.529Z,14.85
2019-03-31T12:35:07.550Z,15.20
2019-03-31T12:37:42.214Z,12.97
2019-03-31T12:40:19.479Z,13.25
2019-03-31T12:42:47.689Z,14.45
2019-03-31T12:45:15.867Z,13.48
2019-03-31T12:47:44.031Z,14.25
2019-03-31T12:50:12.281Z,14.58
2019-03-31T12:52:46.519Z,12.43
2019-03-31T12:55:10.349Z,11.43
2019-03-31T12:57:38.524Z,16.02
2019-03-31T13:00:07.040Z,12.13
2019-03-31T13:02:35.271Z,10.72
2019-03-31T13:05:04.926Z,10.55
2019-03-31T13:07:33.072Z,14.40
2019-03-31T13:10:03.940Z,11.20
2019-03-31T13:12:34.853Z,11.75
2019-03-31T13:15:02.059Z,11.55
2019-03-31T13:17:30.201Z,11.83
2019-03-31T13:19:58.352Z,14.53
2019-03-31T13:22:27.374Z,9.65
2019-03-31T13:24:55.825Z,10.68
2019-03-31T13:27:24.023Z,9.48
2019-03-31T13:29:52.157Z,8.53
2019-03-31T13:32:20.288Z,10.57
2019-03-31T13:34:48.440Z,11.20
2019-03-31T13:37:16.599Z,15.70
2019-03-31T13:39:44.796Z,13.88
2019-03-31T13:42:13.021Z,13.95
2019-03-31T13:44:41.155Z,13.13
2019-03-31T13:47:09.312Z,13.25
2019-03-31T13:49:37.443Z,16.95
2019-03-31T13:52:05.684Z,15.15
2019-03-31T13:54:33.884Z,16.10
2019-03-31T13:57:02.755Z,21.23
2019-03-31T13:59:31.636Z,21.34
2019-03-31T14:02:00.359Z,13.98
2019-03-31T14:04:28.975Z,11.00
2019-03-31T14:06:57.104Z,11.53
2019-03-31T14:09:25.281Z,12.75
2019-03-31T14:11:53.491Z,13.08
2019-03-31T14:14:21.784Z,17.35
2019-03-31T14:16:49.924Z,15.05
2019-03-31T14:19:18.042Z,25.52
2019-03-31T14:21:46.257Z,13.05
2019-03-31T14:24:14.403Z,9.80
2019-03-31T14:26:42.531Z,13.13
2019-03-31T14:29:10.647Z,12.67
2019-03-31T14:31:38.843Z,18.37
2019-03-31T14:34:09.435Z,14.68
2019-03-31T14:36:37.628Z,11.25
2019-03-31T14:39:07.025Z,12.55
2019-03-31T14:41:35.249Z,10.18
2019-03-31T14:44:03.559Z,9.38
2019-03-31T14:46:31.782Z,16.80
2019-03-31T14:48:59.917Z,17.27
2019-03-31T14:51:28.052Z,22.30
2019-03-31T14:53:56.182Z,14.70
2019-03-31T14:56:24.702Z,16.60
2019-03-31T14:58:53.600Z,14.28
2019-03-31T15:01:27.842Z,11.35
2019-03-31T15:03:55.964Z,17.42
2019-03-31T15:06:24.116Z,14.93
2019-03-31T15:08:54.500Z,10.10
2019-03-31T15:11:22.396Z,10.23
2019-03-31T15:13:50.718Z,9.80
2019-03-31T15:16:18.973Z,10.10
2019-03-31T15:18:47.180Z,11.30
2019-03-31T15:21:15.814Z,7.17
2019-03-31T15:24:03.313Z,9.17
2019-03-31T15:26:32.261Z,7.67
2019-03-31T15:29:03.216Z,7.27
2019-03-31T15:31:31.451Z,53.20
2019-03-31T15:33:59.578Z,10.13
2019-03-31T15:36:27.883Z,7.63
2019-03-31T15:39:08.311Z,7.00
2019-03-31T15:41:25.907Z,7.37
2019-03-31T15:43:54.160Z,8.07
2019-03-31T15:46:24.632Z,16.77
2019-03-31T15:48:52.253Z,10.93
2019-03-31T15:51:20.459Z,15.23
2019-03-31T15:53:48.582Z,10.20
2019-03-31T15:56:16.730Z,10.05
2019-03-31T15:58:44.868Z,8.13
2019-03-31T16:01:13.070Z,12.27
2019-03-31T16:03:41.263Z,8.13
2019-03-31T16:06:09.439Z,8.63
2019-03-31T16:08:37.610Z,6.67
2019-03-31T16:11:05.851Z,9.93
2019-03-31T16:13:33.973Z,17.13
2019-03-31T16:16:02.236Z,12.00
2019-03-31T16:18:30.440Z,7.67
2019-03-31T16:20:58.642Z,9.47
2019-03-31T16:23:26.819Z,7.90
2019-03-31T16:25:58.628Z,11.22
2019-03-31T16:28:26.781Z,10.27
2019-03-31T16:30:54.910Z,8.57
2019-03-31T16:33:23.145Z,8.53
2019-03-31T16:35:51.889Z,8.45
2019-03-31T16:38:20.048Z,6.73
2019-03-31T16:40:48.387Z,5.73
2019-03-31T16:43:16.513Z,8.65
2019-03-31T16:45:44.747Z,6.43
2019-03-31T16:48:13.306Z,6.20
2019-03-31T16:50:41.473Z,13.70
2019-03-31T16:53:09.745Z,9.77
2019-03-31T16:55:40.800Z,14.07
2019-03-31T16:58:09.662Z,6.70
2019-03-31T17:00:38.070Z,12.27
2019-03-31T17:03:06.262Z,7.13
2019-03-31T17:05:34.386Z,9.83
2019-03-31T17:08:02.659Z,29.18
2019-03-31T17:10:30.946Z,18.63
2019-03-31T17:12:59.051Z,7.77
2019-03-31T17:15:27.191Z,11.23
2019-03-31T17:17:55.400Z,8.33
2019-03-31T17:20:23.532Z,7.30
2019-03-31T17:22:51.666Z,7.77
2019-03-31T17:25:19.860Z,9.20
2019-03-31T17:27:48.042Z,10.57
2019-03-31T17:30:16.798Z,11.78
2019-03-31T17:32:44.992Z,12.73
2019-03-31T17:35:13.121Z,8.27
2019-03-31T17:37:41.516Z,6.93
2019-03-31T17:40:09.770Z,8.60
2019-03-31T17:42:37.972Z,7.73
2019-03-31T17:45:06.539Z,5.90
2019-03-31T17:47:41.846Z,7.03
2019-03-31T17:50:10.167Z,8.77
2019-03-31T17:52:38.374Z,8.35
2019-03-31T17:55:06.765Z,7.17
2019-03-31T17:57:34.895Z,15.47
2019-03-31T18:00:05.201Z,16.82
2019-03-31T18:02:33.363Z,9.20
2019-03-31T18:05:01.859Z,9.90
2019-03-31T18:07:30.043Z,21.50
2019-03-31T18:09:58.183Z,21.17
2019-03-31T18:12:26.424Z,10.85
2019-03-31T18:14:54.631Z,7.97
2019-03-31T18:17:22.755Z,8.63
2019-03-31T18:19:51.385Z,9.25
2019-03-31T18:22:19.492Z,8.53
2019-03-31T18:24:47.607Z,15.20
2019-03-31T18:27:15.776Z,15.17
2019-03-31T18:29:43.890Z,14.57
2019-03-31T18:32:12.025Z,11.83
2019-03-31T18:34:40.334Z,9.00
2019-03-31T18:37:08.528Z,13.10
2019-03-31T18:39:36.662Z,10.63
2019-03-31T18:42:04.871Z,13.93
2019-03-31T18:44:33.841Z,8.90
2019-03-31T18:47:02.044Z,8.97
2019-03-31T18:49:30.166Z,10.97
2019-03-31T18:51:58.301Z,11.93
2019-03-31T18:54:30.631Z,10.17
2019-03-31T18:57:06.080Z,54.63
2019-03-31T18:59:41.481Z,18.50
2019-03-31T19:02:11.286Z,12.03
2019-03-31T19:04:41.251Z,14.20
2019-03-31T19:07:19.005Z,7.87
2019-03-31T19:09:50.978Z,14.93
2019-03-31T19:12:35.068Z,14.73
2019-03-31T19:15:10.196Z,10.95
2019-03-31T19:17:49.536Z,9.40
2019-03-31T19:20:38.437Z,10.37
2019-03-31T19:23:20.342Z,13.62
2019-03-31T19:26:08.039Z,11.33
2019-03-31T19:28:41.151Z,10.15
2019-03-31T19:31:27.739Z,13.07
2019-03-31T19:34:13.964Z,9.15
2019-03-31T19:36:55.669Z,10.10
2019-03-31T19:39:34.135Z,10.37
2019-03-31T19:42:10.075Z,9.05
2019-03-31T19:44:45.467Z,7.30
2019-03-31T19:47:31.609Z,12.33
2019-03-31T19:50:18.079Z,14.27
2019-03-31T19:52:48.184Z,8.37
2019-03-31T19:55:30.115Z,9.05
2019-03-31T19:58:06.109Z,10.17
2019-03-31T20:00:39.010Z,14.47
2019-03-31T20:03:08.829Z,11.87
2019-03-31T20:05:44.334Z,10.95
2019-03-31T20:08:30.934Z,11.67
2019-03-31T20:11:00.875Z,5.50
2019-03-31T20:13:31.393Z,8.70
2019-03-31T20:16:19.208Z,8.33
2019-03-31T20:19:05.475Z,9.53
2019-03-31T20:21:38.423Z,11.23
2019-03-31T20:24:14.054Z,7.67
2019-03-31T20:26:52.195Z,7.80
2019-03-31T20:29:31.115Z,9.83
2019-03-31T20:32:03.770Z,17.92
2019-03-31T20:34:33.612Z,9.90
2019-03-31T20:37:19.782Z,12.83
2019-03-31T20:40:06.028Z,7.43
2019-03-31T20:42:52.281Z,11.67
2019-03-31T20:45:20.556Z,5.50
2019-03-31T20:47:48.766Z,9.37
2019-03-31T20:50:16.939Z,9.13
2019-03-31T20:52:45.171Z,9.03
2019-03-31T20:55:16.522Z,10.13
2019-03-31T20:57:43.943Z,9.57
2019-03-31T21:00:12.272Z,9.53
2019-03-31T21:02:40.470Z,10.20
2019-03-31T21:05:08.676Z,9.07
2019-03-31T21:07:36.837Z,9.80
2019-03-31T21:10:05.915Z,9.77
2019-03-31T21:12:34.874Z,5.97
2019-03-31T21:15:03.134Z,7.93
2019-03-31T21:17:31.324Z,9.13
2019-03-31T21:19:59.498Z,8.13
2019-03-31T21:22:27.678Z,6.30
2019-03-31T21:24:55.849Z,7.63
2019-03-31T21:27:24.042Z,14.63
2019-03-31T21:29:52.350Z,7.53
2019-03-31T21:32:20.587Z,7.10
2019-03-31T21:34:48.694Z,7.70
2019-03-31T21:37:16.844Z,4.33
2019-03-31T21:39:44.982Z,7.13
2019-03-31T21:42:13.152Z,5.97
2019-03-31T21:44:41.339Z,5.33
2019-03-31T21:47:10.239Z,8.07
2019-03-31T21:49:38.434Z,10.90
2019-03-31T21:52:06.644Z,12.87
2019-03-31T21:54:34.837Z,6.93
2019-03-31T21:57:02.963Z,8.00
2019-03-31T21:59:33.480Z,13.00
2019-03-31T22:02:00.995Z,7.70
2019-03-31T22:04:29.241Z,7.97
2019-03-31T22:06:57.354Z,8.73
2019-03-31T22:09:25.514Z,8.43
2019-03-31T22:11:53.685Z,9.60
2019-03-31T22:14:21.820Z,13.60
2019-03-31T22:16:50.499Z,8.60
2019-03-31T22:19:18.628Z,6.97
2019-03-31T22:21:46.742Z,7.90
2019-03-31T22:24:14.865Z,6.73
2019-03-31T22:26:42.981Z,10.13
2019-03-31T22:29:11.098Z,5.53
2019-03-31T22:31:39.231Z,8.97
2019-03-31T22:34:08.094Z,6.50
2019-03-31T22:36:36.218Z,5.93
2019-03-31T22:39:05.714Z,7.80
2019-03-31T22:41:33.830Z,4.63
2019-03-31T22:44:01.940Z,10.23
2019-03-31T22:46:30.071Z,4.93
2019-03-31T22:48:58.219Z,10.72
2019-03-31T22:51:26.481Z,9.50
2019-03-31T22:53:54.639Z,9.07
2019-03-31T22:56:22.777Z,10.75
2019-03-31T22:58:51.015Z,5.27
2019-03-31T23:01:19.231Z,9.08
2019-03-31T23:03:47.388Z,8.67
2019-03-31T23:06:15.571Z,7.23
2019-03-31T23:08:43.738Z,6.00
2019-03-31T23:11:11.868Z,14.80
2019-03-31T23:13:40.039Z,11.27
2019-03-31T23:16:08.176Z,4.90
2019-03-31T23:18:36.287Z,8.10
2019-03-31T23:21:04.447Z,6.27
2019-03-31T23:23:32.606Z,7.40
2019-03-31T23:26:00.714Z,7.37
2019-03-31T23:28:28.870Z,8.23
2019-03-31T23:31:03.410Z,10.93
2019-03-31T23:33:29.784Z,6.33
2019-03-31T23:35:58.564Z,5.87
2019-03-31T23:38:26.750Z,10.43
2019-03-31T23:40:54.861Z,6.87
2019-03-31T23:43:23.012Z,8.05
2019-03-31T23:45:51.128Z,5.90
2019-03-31T23:48:19.312Z,7.83
2019-03-31T23:50:47.475Z,10.17
2019-03-31T23:53:15.598Z,4.15
2019-03-31T23:55:43.716Z,8.03
2019-03-31T23:58:11.842Z,7.53
